Metairie, LA (70003)

7:53 PM CDT on May 25, 2015 (GMT -0500)
DeSoto | | Change Station
CLOSE
Current Station
Personal Weather Station
Location: Metairie, LA
Elevation: 7 ft
Nearby Weather Stations

Elev 7 ft 29.98 °N, 90.22 °W | Updated 5 seconds ago

Light Rain
Light Rain
71.8 °F
Feels Like 71.8 °F
N
5.4
Wind Variable Wind from East
Gusts 6.9 mph

Today
High -- | Low -- °F
--% Chance of Precip.
Yesterday
High -- | Low -- °F
Precip. -- in
6:02 AM 7:53 PM
First Quarter, 53% visible
Pressure 30.02 in
Visibility 8.0 miles
Clouds Few 1600 ft
Mostly Cloudy 3100 ft
Overcast 5000 ft
Dew Point 71 °F
Humidity 97%
Rainfall 0.79 in
Snow Depth Not available.
UV 0.0 out of 12
Pollen 3.20 out of 12
Air Quality Not available.
Flu Activity Sporadic
SPECI KMSY 260016Z 08012G17KT 8SM -RA FEW016 BKN031 OVC050 23/20 A3002 RMK AO2 P0002 T02330200

More Conditions Fewer Conditions

Pressure 30.02 in
Visibility 8.0 miles
Clouds Few 1600 ft
Mostly Cloudy 3100 ft
Overcast 5000 ft
Dew Point 71 °F
Humidity 97%
Rainfall 0.79 in
Snow Depth Not available.
UV 0.0 out of 12
Pollen 3.20 out of 12
Air Quality Not available.
Flu Activity Sporadic
SPECI KMSY 260016Z 08012G17KT 8SM -RA FEW016 BKN031 OVC050 23/20 A3002 RMK AO2 P0002 T02330200

More Conditions Fewer Conditions

10-Day Weather Forecast

Almanac

Astronomy

May. 25, 2015 Rise Set
Actual Time
Civil Twilight
Nautical Twilight
Astronomical Twilight
Moon
Length of Visible Light
Length of Day
Tomorrow will be .
, % of the Moon is Illuminated

Today's Extremes

State Highs State Lows

Community

WunderPhotos

Upload Photos

1,824,190 photos uploaded!

WunderBlogs® & News

Nearby

Air Quality

  Air Quality AQ Index Pollutant
Not available.

Snow Depth

Station Depth Elevation

Earthquake Activity

City Distance Mag. Time & Date
Minimum magnitude displayed is 2.5.

Coastal Water Temperatures

Place Temperature

Stations

Nearby Weather Stations

Station Location Temp. Windchill Dew Point Humidity Wind Precip. Elev Updated Type